sensor_id;sensor_type;location;lat;lon;timestamp;temperature;humidity
38788;DHT22;24536;45.488;12.238;2024-02-21T00:01:26;13.70;92.70
38788;DHT22;24536;45.488;12.238;2024-02-21T00:03:52;13.70;92.70
38788;DHT22;24536;45.488;12.238;2024-02-21T00:06:18;13.70;92.70
38788;DHT22;24536;45.488;12.238;2024-02-21T00:08:43;13.70;92.70
38788;DHT22;24536;45.488;12.238;2024-02-21T00:11:09;13.70;92.60
38788;DHT22;24536;45.488;12.238;2024-02-21T00:13:35;13.60;92.70
38788;DHT22;24536;45.488;12.238;2024-02-21T00:16:01;13.60;92.80
38788;DHT22;24536;45.488;12.238;2024-02-21T00:18:27;13.60;92.90
38788;DHT22;24536;45.488;12.238;2024-02-21T00:20:52;13.60;92.90
38788;DHT22;24536;45.488;12.238;2024-02-21T00:23:18;13.60;92.90
38788;DHT22;24536;45.488;12.238;2024-02-21T00:25:44;13.60;92.90
38788;DHT22;24536;45.488;12.238;2024-02-21T00:28:10;13.60;92.80
38788;DHT22;24536;45.488;12.238;2024-02-21T00:30:35;13.60;92.90
38788;DHT22;24536;45.488;12.238;2024-02-21T00:33:03;13.60;92.90
38788;DHT22;24536;45.488;12.238;2024-02-21T00:35:29;13.60;92.90
38788;DHT22;24536;45.488;12.238;2024-02-21T00:37:54;13.50;92.90
38788;DHT22;24536;45.488;12.238;2024-02-21T00:40:22;13.60;93.00
38788;DHT22;24536;45.488;12.238;2024-02-21T00:42:48;13.50;93.00
38788;DHT22;24536;45.488;12.238;2024-02-21T00:45:14;13.50;93.10
38788;DHT22;24536;45.488;12.238;2024-02-21T00:47:40;13.50;93.10
38788;DHT22;24536;45.488;12.238;2024-02-21T00:50:06;13.50;93.00
38788;DHT22;24536;45.488;12.238;2024-02-21T00:52:33;13.50;92.90
38788;DHT22;24536;45.488;12.238;2024-02-21T00:54:58;13.50;92.90
38788;DHT22;24536;45.488;12.238;2024-02-21T00:57:25;13.50;92.80
38788;DHT22;24536;45.488;12.238;2024-02-21T00:59:50;13.50;92.70
38788;DHT22;24536;45.488;12.238;2024-02-21T01:02:16;13.50;92.60
38788;DHT22;24536;45.488;12.238;2024-02-21T01:04:42;13.50;92.60
38788;DHT22;24536;45.488;12.238;2024-02-21T01:07:07;13.50;92.60
38788;DHT22;24536;45.488;12.238;2024-02-21T01:09:33;13.50;92.60
38788;DHT22;24536;45.488;12.238;2024-02-21T01:11:59;13.50;92.60
38788;DHT22;24536;45.488;12.238;2024-02-21T01:14:24;13.50;92.60
38788;DHT22;24536;45.488;12.238;2024-02-21T01:16:50;13.50;92.60
38788;DHT22;24536;45.488;12.238;2024-02-21T01:19:15;13.50;92.50
38788;DHT22;24536;45.488;12.238;2024-02-21T01:21:41;13.50;92.70
38788;DHT22;24536;45.488;12.238;2024-02-21T01:24:07;13.50;92.50
38788;DHT22;24536;45.488;12.238;2024-02-21T01:26:32;13.50;92.50
38788;DHT22;24536;45.488;12.238;2024-02-21T01:28:58;13.50;92.40
38788;DHT22;24536;45.488;12.238;2024-02-21T01:31:24;13.40;92.40
38788;DHT22;24536;45.488;12.238;2024-02-21T01:33:49;13.50;92.40
38788;DHT22;24536;45.488;12.238;2024-02-21T01:36:15;13.40;92.30
38788;DHT22;24536;45.488;12.238;2024-02-21T01:38:41;13.40;92.40
38788;DHT22;24536;45.488;12.238;2024-02-21T01:41:06;13.40;92.40
38788;DHT22;24536;45.488;12.238;2024-02-21T01:43:32;13.40;92.30
38788;DHT22;24536;45.488;12.238;2024-02-21T01:45:58;13.40;92.30
38788;DHT22;24536;45.488;12.238;2024-02-21T01:48:24;13.40;92.30
38788;DHT22;24536;45.488;12.238;2024-02-21T01:50:51;13.40;92.30
38788;DHT22;24536;45.488;12.238;2024-02-21T01:53:25;13.40;92.20
38788;DHT22;24536;45.488;12.238;2024-02-21T01:55:52;13.40;92.20
38788;DHT22;24536;45.488;12.238;2024-02-21T01:58:18;13.40;92.20
38788;DHT22;24536;45.488;12.238;2024-02-21T02:00:47;13.30;92.20
38788;DHT22;24536;45.488;12.238;2024-02-21T02:03:14;13.30;92.30
38788;DHT22;24536;45.488;12.238;2024-02-21T02:05:46;13.20;92.20
38788;DHT22;24536;45.488;12.238;2024-02-21T02:08:22;13.20;92.20
38788;DHT22;24536;45.488;12.238;2024-02-21T02:10:48;13.20;92.20
38788;DHT22;24536;45.488;12.238;2024-02-21T02:13:14;13.20;92.20
38788;DHT22;24536;45.488;12.238;2024-02-21T02:18:09;13.10;92.20
38788;DHT22;24536;45.488;12.238;2024-02-21T02:20:35;13.10;92.20
38788;DHT22;24536;45.488;12.238;2024-02-21T02:25:32;13.10;92.10
38788;DHT22;24536;45.488;12.238;2024-02-21T02:27:59;13.00;92.10
38788;DHT22;24536;45.488;12.238;2024-02-21T02:30:24;13.00;92.10
38788;DHT22;24536;45.488;12.238;2024-02-21T02:32:50;12.90;92.10
38788;DHT22;24536;45.488;12.238;2024-02-21T02:35:16;12.80;92.10
38788;DHT22;24536;45.488;12.238;2024-02-21T02:37:48;12.70;92.40
38788;DHT22;24536;45.488;12.238;2024-02-21T02:40:15;12.50;92.70
38788;DHT22;24536;45.488;12.238;2024-02-21T02:42:40;12.40;92.70
38788;DHT22;24536;45.488;12.238;2024-02-21T02:45:06;12.30;92.90
38788;DHT22;24536;45.488;12.238;2024-02-21T02:47:32;12.30;93.00
38788;DHT22;24536;45.488;12.238;2024-02-21T02:50:00;12.30;93.10
38788;DHT22;24536;45.488;12.238;2024-02-21T02:52:25;12.30;93.10
38788;DHT22;24536;45.488;12.238;2024-02-21T02:54:51;12.30;93.10
38788;DHT22;24536;45.488;12.238;2024-02-21T02:57:18;12.40;93.00
38788;DHT22;24536;45.488;12.238;2024-02-21T02:59:51;12.30;92.90
38788;DHT22;24536;45.488;12.238;2024-02-21T03:02:17;12.40;93.00
38788;DHT22;24536;45.488;12.238;2024-02-21T03:04:43;12.40;92.90
38788;DHT22;24536;45.488;12.238;2024-02-21T03:07:09;12.40;92.80
38788;DHT22;24536;45.488;12.238;2024-02-21T03:09:37;12.40;92.70
38788;DHT22;24536;45.488;12.238;2024-02-21T03:12:03;12.50;92.50
38788;DHT22;24536;45.488;12.238;2024-02-21T03:14:29;12.50;92.40
38788;DHT22;24536;45.488;12.238;2024-02-21T03:16:56;12.50;92.30
38788;DHT22;24536;45.488;12.238;2024-02-21T03:19:21;12.50;92.20
38788;DHT22;24536;45.488;12.238;2024-02-21T03:21:48;12.50;92.20
38788;DHT22;24536;45.488;12.238;2024-02-21T03:24:15;12.50;92.10
38788;DHT22;24536;45.488;12.238;2024-02-21T03:26:41;12.50;92.10
38788;DHT22;24536;45.488;12.238;2024-02-21T03:29:07;12.50;92.00
38788;DHT22;24536;45.488;12.238;2024-02-21T03:31:33;12.40;92.00
38788;DHT22;24536;45.488;12.238;2024-02-21T03:33:58;12.40;92.00
38788;DHT22;24536;45.488;12.238;2024-02-21T03:36:24;12.40;92.00
38788;DHT22;24536;45.488;12.238;2024-02-21T03:38:50;12.40;92.10
38788;DHT22;24536;45.488;12.238;2024-02-21T03:41:15;12.40;92.00
38788;DHT22;24536;45.488;12.238;2024-02-21T03:43:41;12.40;92.00
38788;DHT22;24536;45.488;12.238;2024-02-21T03:46:07;12.40;91.80
38788;DHT22;24536;45.488;12.238;2024-02-21T03:48:32;12.50;91.70
38788;DHT22;24536;45.488;12.238;2024-02-21T03:50:58;12.50;91.60
38788;DHT22;24536;45.488;12.238;2024-02-21T03:53:24;12.50;91.50
38788;DHT22;24536;45.488;12.238;2024-02-21T03:55:50;12.50;91.40
38788;DHT22;24536;45.488;12.238;2024-02-21T03:58:15;12.50;91.30
38788;DHT22;24536;45.488;12.238;2024-02-21T04:00:41;12.50;91.30
38788;DHT22;24536;45.488;12.238;2024-02-21T04:03:07;12.50;91.10
38788;DHT22;24536;45.488;12.238;2024-02-21T04:05:51;12.50;91.00
38788;DHT22;24536;45.488;12.238;2024-02-21T04:08:17;12.50;90.90
38788;DHT22;24536;45.488;12.238;2024-02-21T04:10:43;12.50;90.90
38788;DHT22;24536;45.488;12.238;2024-02-21T04:13:09;12.50;90.90
38788;DHT22;24536;45.488;12.238;2024-02-21T04:15:34;12.50;90.90
38788;DHT22;24536;45.488;12.238;2024-02-21T04:18:00;12.40;90.80
38788;DHT22;24536;45.488;12.238;2024-02-21T04:20:26;12.40;90.80
38788;DHT22;24536;45.488;12.238;2024-02-21T04:22:52;12.40;90.60
38788;DHT22;24536;45.488;12.238;2024-02-21T04:25:18;12.40;90.50
38788;DHT22;24536;45.488;12.238;2024-02-21T04:27:44;12.40;90.50
38788;DHT22;24536;45.488;12.238;2024-02-21T04:30:10;12.40;90.50
38788;DHT22;24536;45.488;12.238;2024-02-21T04:32:36;12.40;90.50
38788;DHT22;24536;45.488;12.238;2024-02-21T04:35:02;12.40;90.60
38788;DHT22;24536;45.488;12.238;2024-02-21T04:37:27;12.40;90.60
38788;DHT22;24536;45.488;12.238;2024-02-21T04:39:53;12.40;90.40
38788;DHT22;24536;45.488;12.238;2024-02-21T04:42:44;12.40;90.30
38788;DHT22;24536;45.488;12.238;2024-02-21T04:45:10;12.40;90.10
38788;DHT22;24536;45.488;12.238;2024-02-21T04:47:35;12.30;89.60
38788;DHT22;24536;45.488;12.238;2024-02-21T04:50:01;12.10;90.30
38788;DHT22;24536;45.488;12.238;2024-02-21T04:52:27;12.00;90.50
38788;DHT22;24536;45.488;12.238;2024-02-21T04:54:52;11.90;90.90
38788;DHT22;24536;45.488;12.238;2024-02-21T04:57:18;11.80;90.90
38788;DHT22;24536;45.488;12.238;2024-02-21T04:59:44;11.70;91.10
38788;DHT22;24536;45.488;12.238;2024-02-21T05:02:11;11.70;91.20
38788;DHT22;24536;45.488;12.238;2024-02-21T05:04:36;11.50;91.60
38788;DHT22;24536;45.488;12.238;2024-02-21T05:07:04;11.40;91.70
38788;DHT22;24536;45.488;12.238;2024-02-21T05:09:32;11.20;92.10
38788;DHT22;24536;45.488;12.238;2024-02-21T05:11:58;11.20;92.20
38788;DHT22;24536;45.488;12.238;2024-02-21T05:14:25;11.00;92.50
38788;DHT22;24536;45.488;12.238;2024-02-21T05:16:52;11.00;92.40
38788;DHT22;24536;45.488;12.238;2024-02-21T05:19:18;11.00;92.40
38788;DHT22;24536;45.488;12.238;2024-02-21T05:21:43;11.00;92.40
38788;DHT22;24536;45.488;12.238;2024-02-21T05:24:09;11.00;92.40
38788;DHT22;24536;45.488;12.238;2024-02-21T05:26:35;11.00;92.50
38788;DHT22;24536;45.488;12.238;2024-02-21T05:29:01;11.10;92.50
38788;DHT22;24536;45.488;12.238;2024-02-21T05:34:20;11.10;92.50
38788;DHT22;24536;45.488;12.238;2024-02-21T05:36:46;11.10;92.50
38788;DHT22;24536;45.488;12.238;2024-02-21T05:39:13;11.10;92.60
38788;DHT22;24536;45.488;12.238;2024-02-21T05:41:38;11.10;92.50
38788;DHT22;24536;45.488;12.238;2024-02-21T05:44:10;11.10;92.60
38788;DHT22;24536;45.488;12.238;2024-02-21T05:46:37;11.10;92.50
38788;DHT22;24536;45.488;12.238;2024-02-21T05:49:03;11.10;92.60
38788;DHT22;24536;45.488;12.238;2024-02-21T05:51:36;11.10;92.70
38788;DHT22;24536;45.488;12.238;2024-02-21T05:54:02;11.10;92.70
38788;DHT22;24536;45.488;12.238;2024-02-21T05:56:27;11.10;92.80
38788;DHT22;24536;45.488;12.238;2024-02-21T05:58:53;11.10;92.70
38788;DHT22;24536;45.488;12.238;2024-02-21T06:01:19;11.10;92.60
38788;DHT22;24536;45.488;12.238;2024-02-21T06:03:47;11.10;92.50
38788;DHT22;24536;45.488;12.238;2024-02-21T06:06:12;11.00;92.50
38788;DHT22;24536;45.488;12.238;2024-02-21T06:08:40;11.00;92.60
38788;DHT22;24536;45.488;12.238;2024-02-21T06:11:06;10.90;92.60
38788;DHT22;24536;45.488;12.238;2024-02-21T06:13:32;10.80;92.70
38788;DHT22;24536;45.488;12.238;2024-02-21T06:15:57;10.80;92.70
38788;DHT22;24536;45.488;12.238;2024-02-21T06:18:26;10.80;92.70
38788;DHT22;24536;45.488;12.238;2024-02-21T06:20:51;10.80;92.70
38788;DHT22;24536;45.488;12.238;2024-02-21T06:23:17;10.80;92.70
38788;DHT22;24536;45.488;12.238;2024-02-21T06:25:43;10.80;92.70
38788;DHT22;24536;45.488;12.238;2024-02-21T06:28:09;10.80;92.80
38788;DHT22;24536;45.488;12.238;2024-02-21T06:30:35;10.90;92.80
38788;DHT22;24536;45.488;12.238;2024-02-21T06:33:01;10.90;92.70
38788;DHT22;24536;45.488;12.238;2024-02-21T06:35:28;10.90;92.70
38788;DHT22;24536;45.488;12.238;2024-02-21T06:37:54;11.00;92.60
38788;DHT22;24536;45.488;12.238;2024-02-21T06:40:21;11.10;92.50
38788;DHT22;24536;45.488;12.238;2024-02-21T06:42:47;11.10;92.40
38788;DHT22;24536;45.488;12.238;2024-02-21T06:45:13;11.10;92.40
38788;DHT22;24536;45.488;12.238;2024-02-21T06:47:39;11.20;92.30
38788;DHT22;24536;45.488;12.238;2024-02-21T06:50:05;11.20;92.20
38788;DHT22;24536;45.488;12.238;2024-02-21T06:52:31;11.30;92.10
38788;DHT22;24536;45.488;12.238;2024-02-21T06:54:56;11.30;92.00
38788;DHT22;24536;45.488;12.238;2024-02-21T06:57:22;11.40;92.00
38788;DHT22;24536;45.488;12.238;2024-02-21T06:59:48;11.40;91.80
38788;DHT22;24536;45.488;12.238;2024-02-21T07:02:14;11.50;91.60
38788;DHT22;24536;45.488;12.238;2024-02-21T07:04:39;11.60;91.40
38788;DHT22;24536;45.488;12.238;2024-02-21T07:07:05;11.60;90.80
38788;DHT22;24536;45.488;12.238;2024-02-21T07:09:31;11.60;89.70
38788;DHT22;24536;45.488;12.238;2024-02-21T07:12:00;11.60;89.90
38788;DHT22;24536;45.488;12.238;2024-02-21T07:14:28;11.60;89.30
38788;DHT22;24536;45.488;12.238;2024-02-21T07:16:53;11.70;89.50
38788;DHT22;24536;45.488;12.238;2024-02-21T07:19:20;11.70;89.10
38788;DHT22;24536;45.488;12.238;2024-02-21T07:21:45;11.80;89.20
38788;DHT22;24536;45.488;12.238;2024-02-21T07:24:11;11.90;88.70
38788;DHT22;24536;45.488;12.238;2024-02-21T07:26:40;12.00;88.30
38788;DHT22;24536;45.488;12.238;2024-02-21T07:29:06;12.00;88.00
38788;DHT22;24536;45.488;12.238;2024-02-21T07:31:40;12.20;87.90
38788;DHT22;24536;45.488;12.238;2024-02-21T07:34:06;12.20;87.50
38788;DHT22;24536;45.488;12.238;2024-02-21T07:36:32;12.30;87.20
38788;DHT22;24536;45.488;12.238;2024-02-21T07:38:57;12.40;87.20
38788;DHT22;24536;45.488;12.238;2024-02-21T07:41:23;12.40;86.80
38788;DHT22;24536;45.488;12.238;2024-02-21T07:43:49;12.40;86.40
38788;DHT22;24536;45.488;12.238;2024-02-21T07:46:15;12.50;86.40
38788;DHT22;24536;45.488;12.238;2024-02-21T07:48:41;12.50;85.40
38788;DHT22;24536;45.488;12.238;2024-02-21T07:51:06;12.60;85.40
38788;DHT22;24536;45.488;12.238;2024-02-21T07:53:32;12.60;85.40
38788;DHT22;24536;45.488;12.238;2024-02-21T07:55:58;12.70;84.60
38788;DHT22;24536;45.488;12.238;2024-02-21T07:58:23;12.70;84.00
38788;DHT22;24536;45.488;12.238;2024-02-21T08:00:49;12.70;83.30
38788;DHT22;24536;45.488;12.238;2024-02-21T08:03:15;12.80;81.40
38788;DHT22;24536;45.488;12.238;2024-02-21T08:05:43;12.90;81.60
38788;DHT22;24536;45.488;12.238;2024-02-21T08:08:09;12.90;81.70
38788;DHT22;24536;45.488;12.238;2024-02-21T08:10:35;13.00;81.40
38788;DHT22;24536;45.488;12.238;2024-02-21T08:13:01;13.10;81.00
38788;DHT22;24536;45.488;12.238;2024-02-21T08:15:26;13.20;81.60
38788;DHT22;24536;45.488;12.238;2024-02-21T08:17:55;13.30;81.40
38788;DHT22;24536;45.488;12.238;2024-02-21T08:20:25;13.30;81.50
38788;DHT22;24536;45.488;12.238;2024-02-21T08:22:51;13.40;81.40
38788;DHT22;24536;45.488;12.238;2024-02-21T08:25:17;13.60;80.60
38788;DHT22;24536;45.488;12.238;2024-02-21T08:27:42;13.70;80.50
38788;DHT22;24536;45.488;12.238;2024-02-21T08:30:08;13.80;80.10
38788;DHT22;24536;45.488;12.238;2024-02-21T08:32:34;14.00;80.30
38788;DHT22;24536;45.488;12.238;2024-02-21T08:35:01;14.10;79.10
38788;DHT22;24536;45.488;12.238;2024-02-21T08:37:27;14.20;79.80
38788;DHT22;24536;45.488;12.238;2024-02-21T08:39:53;14.40;80.00
38788;DHT22;24536;45.488;12.238;2024-02-21T08:42:19;14.40;78.10
38788;DHT22;24536;45.488;12.238;2024-02-21T08:44:45;14.40;78.80
38788;DHT22;24536;45.488;12.238;2024-02-21T08:47:11;14.50;77.60
38788;DHT22;24536;45.488;12.238;2024-02-21T08:49:37;14.50;78.70
38788;DHT22;24536;45.488;12.238;2024-02-21T08:52:03;14.60;78.80
38788;DHT22;24536;45.488;12.238;2024-02-21T08:54:29;14.70;78.50
38788;DHT22;24536;45.488;12.238;2024-02-21T08:56:55;14.90;76.00
38788;DHT22;24536;45.488;12.238;2024-02-21T08:59:22;14.90;76.40
38788;DHT22;24536;45.488;12.238;2024-02-21T09:01:47;14.90;77.30
38788;DHT22;24536;45.488;12.238;2024-02-21T09:04:13;15.10;77.80
38788;DHT22;24536;45.488;12.238;2024-02-21T09:06:39;15.30;77.70
38788;DHT22;24536;45.488;12.238;2024-02-21T09:09:08;15.40;75.30
38788;DHT22;24536;45.488;12.238;2024-02-21T09:11:35;15.40;73.90
38788;DHT22;24536;45.488;12.238;2024-02-21T09:14:01;15.40;75.80
38788;DHT22;24536;45.488;12.238;2024-02-21T09:16:30;15.50;76.20
38788;DHT22;24536;45.488;12.238;2024-02-21T09:18:56;15.70;75.80
38788;DHT22;24536;45.488;12.238;2024-02-21T09:21:23;15.90;75.20
38788;DHT22;24536;45.488;12.238;2024-02-21T09:23:48;16.10;75.10
38788;DHT22;24536;45.488;12.238;2024-02-21T09:26:14;16.40;74.30
38788;DHT22;24536;45.488;12.238;2024-02-21T09:28:42;16.50;72.90
38788;DHT22;24536;45.488;12.238;2024-02-21T09:31:07;16.60;73.20
38788;DHT22;24536;45.488;12.238;2024-02-21T09:33:33;16.70;72.30
38788;DHT22;24536;45.488;12.238;2024-02-21T09:35:59;16.70;70.20
38788;DHT22;24536;45.488;12.238;2024-02-21T09:38:25;16.60;71.90
38788;DHT22;24536;45.488;12.238;2024-02-21T09:43:36;16.90;70.10
38788;DHT22;24536;45.488;12.238;2024-02-21T09:46:04;17.00;70.80
38788;DHT22;24536;45.488;12.238;2024-02-21T09:51:15;17.20;71.00
38788;DHT22;24536;45.488;12.238;2024-02-21T09:53:42;17.30;71.00
38788;DHT22;24536;45.488;12.238;2024-02-21T09:56:09;17.50;71.10
38788;DHT22;24536;45.488;12.238;2024-02-21T09:58:35;17.70;70.60
38788;DHT22;24536;45.488;12.238;2024-02-21T10:01:00;17.90;69.30
38788;DHT22;24536;45.488;12.238;2024-02-21T10:03:26;18.00;69.10
38788;DHT22;24536;45.488;12.238;2024-02-21T10:05:52;18.20;68.20
38788;DHT22;24536;45.488;12.238;2024-02-21T10:08:18;18.30;68.50
38788;DHT22;24536;45.488;12.238;2024-02-21T10:10:45;18.50;69.30
38788;DHT22;24536;45.488;12.238;2024-02-21T10:13:25;18.60;68.20
38788;DHT22;24536;45.488;12.238;2024-02-21T10:16:07;18.60;68.10
38788;DHT22;24536;45.488;12.238;2024-02-21T10:18:34;18.80;67.70
38788;DHT22;24536;45.488;12.238;2024-02-21T10:21:04;18.90;67.40
38788;DHT22;24536;45.488;12.238;2024-02-21T10:23:45;19.10;67.00
38788;DHT22;24536;45.488;12.238;2024-02-21T10:26:11;19.30;66.30
38788;DHT22;24536;45.488;12.238;2024-02-21T10:28:38;19.40;65.70
38788;DHT22;24536;45.488;12.238;2024-02-21T10:31:27;19.50;65.70
38788;DHT22;24536;45.488;12.238;2024-02-21T10:34:02;19.70;64.80
38788;DHT22;24536;45.488;12.238;2024-02-21T10:36:31;19.70;63.50
38788;DHT22;24536;45.488;12.238;2024-02-21T10:38:57;19.60;63.20
38788;DHT22;24536;45.488;12.238;2024-02-21T10:41:23;19.70;63.80
38788;DHT22;24536;45.488;12.238;2024-02-21T10:43:51;19.80;63.90
38788;DHT22;24536;45.488;12.238;2024-02-21T10:46:22;19.90;63.60
38788;DHT22;24536;45.488;12.238;2024-02-21T10:51:25;20.20;63.20
38788;DHT22;24536;45.488;12.238;2024-02-21T10:56:40;20.40;62.20
38788;DHT22;24536;45.488;12.238;2024-02-21T10:59:08;20.50;62.00
38788;DHT22;24536;45.488;12.238;2024-02-21T11:01:34;20.70;61.80
38788;DHT22;24536;45.488;12.238;2024-02-21T11:04:05;20.70;61.60
38788;DHT22;24536;45.488;12.238;2024-02-21T11:06:35;20.80;61.40
38788;DHT22;24536;45.488;12.238;2024-02-21T11:09:04;20.90;61.60
38788;DHT22;24536;45.488;12.238;2024-02-21T11:11:40;21.00;61.60
38788;DHT22;24536;45.488;12.238;2024-02-21T11:14:19;21.20;61.80
38788;DHT22;24536;45.488;12.238;2024-02-21T11:16:46;21.30;61.60
38788;DHT22;24536;45.488;12.238;2024-02-21T11:19:28;21.50;61.00
38788;DHT22;24536;45.488;12.238;2024-02-21T11:21:55;21.50;61.10
38788;DHT22;24536;45.488;12.238;2024-02-21T11:24:26;21.60;61.10
38788;DHT22;24536;45.488;12.238;2024-02-21T11:26:53;21.70;60.60
38788;DHT22;24536;45.488;12.238;2024-02-21T11:29:25;21.80;60.10
38788;DHT22;24536;45.488;12.238;2024-02-21T11:31:51;21.90;60.00
38788;DHT22;24536;45.488;12.238;2024-02-21T11:34:18;21.90;59.40
38788;DHT22;24536;45.488;12.238;2024-02-21T11:37:02;22.00;59.10
38788;DHT22;24536;45.488;12.238;2024-02-21T11:39:38;22.20;59.30
38788;DHT22;24536;45.488;12.238;2024-02-21T11:42:06;22.30;59.30
38788;DHT22;24536;45.488;12.238;2024-02-21T11:44:34;22.50;59.30
38788;DHT22;24536;45.488;12.238;2024-02-21T11:47:00;22.60;57.90
38788;DHT22;24536;45.488;12.238;2024-02-21T11:49:30;22.70;58.40
38788;DHT22;24536;45.488;12.238;2024-02-21T11:52:03;23.00;57.70
38788;DHT22;24536;45.488;12.238;2024-02-21T11:54:32;23.90;57.60
38788;DHT22;24536;45.488;12.238;2024-02-21T11:56:59;25.00;55.40
38788;DHT22;24536;45.488;12.238;2024-02-21T11:59:24;26.20;52.80
38788;DHT22;24536;45.488;12.238;2024-02-21T12:01:50;27.10;50.90
38788;DHT22;24536;45.488;12.238;2024-02-21T12:04:43;27.70;50.30
38788;DHT22;24536;45.488;12.238;2024-02-21T12:07:09;28.40;48.30
38788;DHT22;24536;45.488;12.238;2024-02-21T12:09:35;28.90;47.70
38788;DHT22;24536;45.488;12.238;2024-02-21T12:12:03;29.20;46.60
38788;DHT22;24536;45.488;12.238;2024-02-21T12:14:29;29.50;45.80
38788;DHT22;24536;45.488;12.238;2024-02-21T12:16:56;29.80;45.20
38788;DHT22;24536;45.488;12.238;2024-02-21T12:19:22;30.20;45.00
38788;DHT22;24536;45.488;12.238;2024-02-21T12:21:48;30.50;44.00
38788;DHT22;24536;45.488;12.238;2024-02-21T12:24:24;30.60;43.10
38788;DHT22;24536;45.488;12.238;2024-02-21T12:26:53;30.40;42.40
38788;DHT22;24536;45.488;12.238;2024-02-21T12:29:20;30.10;42.50
38788;DHT22;24536;45.488;12.238;2024-02-21T12:31:46;29.90;43.00
38788;DHT22;24536;45.488;12.238;2024-02-21T12:34:14;29.80;42.90
38788;DHT22;24536;45.488;12.238;2024-02-21T12:36:44;29.60;42.20
38788;DHT22;24536;45.488;12.238;2024-02-21T12:39:10;29.50;42.80
38788;DHT22;24536;45.488;12.238;2024-02-21T12:41:37;29.10;43.00
38788;DHT22;24536;45.488;12.238;2024-02-21T12:44:07;28.60;43.70
38788;DHT22;24536;45.488;12.238;2024-02-21T12:46:36;28.30;44.30
38788;DHT22;24536;45.488;12.238;2024-02-21T12:49:02;28.10;44.50
38788;DHT22;24536;45.488;12.238;2024-02-21T12:51:29;28.10;44.70
38788;DHT22;24536;45.488;12.238;2024-02-21T12:53:55;28.00;44.70
38788;DHT22;24536;45.488;12.238;2024-02-21T12:56:21;28.00;45.60
38788;DHT22;24536;45.488;12.238;2024-02-21T12:58:47;28.10;45.70
38788;DHT22;24536;45.488;12.238;2024-02-21T13:01:13;28.20;45.40
38788;DHT22;24536;45.488;12.238;2024-02-21T13:03:39;28.40;45.10
38788;DHT22;24536;45.488;12.238;2024-02-21T13:06:05;28.50;44.80
38788;DHT22;24536;45.488;12.238;2024-02-21T13:08:33;28.60;44.50
38788;DHT22;24536;45.488;12.238;2024-02-21T13:11:00;28.50;44.00
38788;DHT22;24536;45.488;12.238;2024-02-21T13:13:26;28.40;43.40
38788;DHT22;24536;45.488;12.238;2024-02-21T13:15:52;28.40;44.90
38788;DHT22;24536;45.488;12.238;2024-02-21T13:18:18;28.30;44.30
38788;DHT22;24536;45.488;12.238;2024-02-21T13:20:44;28.10;43.30
38788;DHT22;24536;45.488;12.238;2024-02-21T13:23:19;27.70;43.20
38788;DHT22;24536;45.488;12.238;2024-02-21T13:25:47;27.30;43.60
38788;DHT22;24536;45.488;12.238;2024-02-21T13:28:13;26.60;43.70
38788;DHT22;24536;45.488;12.238;2024-02-21T13:30:43;26.10;44.80
38788;DHT22;24536;45.488;12.238;2024-02-21T13:33:09;25.50;45.40
38788;DHT22;24536;45.488;12.238;2024-02-21T13:35:35;25.00;45.90
38788;DHT22;24536;45.488;12.238;2024-02-21T13:38:03;24.40;46.90
38788;DHT22;24536;45.488;12.238;2024-02-21T13:40:29;24.00;48.00
38788;DHT22;24536;45.488;12.238;2024-02-21T13:42:54;23.60;48.60
38788;DHT22;24536;45.488;12.238;2024-02-21T13:45:20;23.30;48.60
38788;DHT22;24536;45.488;12.238;2024-02-21T13:47:46;22.90;49.20
38788;DHT22;24536;45.488;12.238;2024-02-21T13:50:13;22.60;50.20
38788;DHT22;24536;45.488;12.238;2024-02-21T13:52:40;22.40;51.00
38788;DHT22;24536;45.488;12.238;2024-02-21T13:55:09;22.10;51.10
38788;DHT22;24536;45.488;12.238;2024-02-21T13:57:36;21.90;51.30
38788;DHT22;24536;45.488;12.238;2024-02-21T14:00:05;21.60;51.90
38788;DHT22;24536;45.488;12.238;2024-02-21T14:02:31;21.50;52.80
38788;DHT22;24536;45.488;12.238;2024-02-21T14:04:57;21.30;53.50
38788;DHT22;24536;45.488;12.238;2024-02-21T14:07:23;21.20;53.90
38788;DHT22;24536;45.488;12.238;2024-02-21T14:09:49;21.00;54.10
38788;DHT22;24536;45.488;12.238;2024-02-21T14:12:15;20.90;54.40
38788;DHT22;24536;45.488;12.238;2024-02-21T14:14:43;20.80;54.50
38788;DHT22;24536;45.488;12.238;2024-02-21T14:17:09;20.70;55.50
38788;DHT22;24536;45.488;12.238;2024-02-21T14:19:35;20.60;55.80
38788;DHT22;24536;45.488;12.238;2024-02-21T14:22:01;20.50;55.90
38788;DHT22;24536;45.488;12.238;2024-02-21T14:24:27;20.40;56.00
38788;DHT22;24536;45.488;12.238;2024-02-21T14:26:53;20.20;55.90
38788;DHT22;24536;45.488;12.238;2024-02-21T14:29:19;20.10;56.30
38788;DHT22;24536;45.488;12.238;2024-02-21T14:31:46;20.00;57.00
38788;DHT22;24536;45.488;12.238;2024-02-21T14:34:12;19.90;57.50
38788;DHT22;24536;45.488;12.238;2024-02-21T14:36:38;19.90;57.80
38788;DHT22;24536;45.488;12.238;2024-02-21T14:39:03;19.70;57.40
38788;DHT22;24536;45.488;12.238;2024-02-21T14:41:30;19.60;57.60
38788;DHT22;24536;45.488;12.238;2024-02-21T14:43:55;19.60;57.80
38788;DHT22;24536;45.488;12.238;2024-02-21T14:46:25;19.50;57.30
38788;DHT22;24536;45.488;12.238;2024-02-21T14:48:54;19.50;57.50
38788;DHT22;24536;45.488;12.238;2024-02-21T14:51:20;19.40;57.10
38788;DHT22;24536;45.488;12.238;2024-02-21T14:53:45;19.30;57.60
38788;DHT22;24536;45.488;12.238;2024-02-21T14:56:20;19.30;57.90
38788;DHT22;24536;45.488;12.238;2024-02-21T14:58:46;19.20;57.20
38788;DHT22;24536;45.488;12.238;2024-02-21T15:01:12;19.20;57.30
38788;DHT22;24536;45.488;12.238;2024-02-21T15:03:38;19.10;57.60
38788;DHT22;24536;45.488;12.238;2024-02-21T15:06:04;19.10;57.60
38788;DHT22;24536;45.488;12.238;2024-02-21T15:08:30;19.00;58.50
38788;DHT22;24536;45.488;12.238;2024-02-21T15:10:56;18.90;58.70
38788;DHT22;24536;45.488;12.238;2024-02-21T15:13:21;18.90;59.40
38788;DHT22;24536;45.488;12.238;2024-02-21T15:15:48;18.80;60.00
38788;DHT22;24536;45.488;12.238;2024-02-21T15:18:17;18.80;60.60
38788;DHT22;24536;45.488;12.238;2024-02-21T15:20:43;18.70;60.40
38788;DHT22;24536;45.488;12.238;2024-02-21T15:23:09;18.60;60.60
38788;DHT22;24536;45.488;12.238;2024-02-21T15:25:35;18.60;60.60
38788;DHT22;24536;45.488;12.238;2024-02-21T15:28:01;18.50;61.00
38788;DHT22;24536;45.488;12.238;2024-02-21T15:30:29;18.50;61.10
38788;DHT22;24536;45.488;12.238;2024-02-21T15:32:59;18.40;60.80